Time;durP1;ratioP1;P1;durP2;ratioP2;P2;SDS_P1;SDS_P2;PMS_P1;PMS_P2;Temp;Humidity;BMP_temperature;BMP_pressure;BME280_temperature;BME280_humidity;BME280_pressure;Samples;Min_cycle;Max_cycle;Signal;HPM_P1;HPM_P2
2024/03/07 00:01:17;;;;;;;47.85;24.75;;;;;;;9.93;59.55;97751.41;5000258;28;20034;-81
2024/03/07 00:03:42;;;;;;;43.70;23.65;;;;;;;9.89;59.53;97750.28;4997737;28;20257;-80
2024/03/07 00:06:08;;;;;;;44.55;23.63;;;;;;;9.86;59.29;97735.13;4991832;28;20092;-79
2024/03/07 00:08:34;;;;;;;47.42;24.10;;;;;;;9.94;59.53;97742.59;4990401;28;20026;-81
2024/03/07 00:10:59;;;;;;;41.47;22.80;;;;;;;9.89;59.27;97745.09;5003229;28;20040;-81
2024/03/07 00:13:24;;;;;;;45.70;24.98;;;;;;;9.81;59.61;97742.81;5000085;28;20049;-80
2024/03/07 00:15:50;;;;;;;46.00;23.33;;;;;;;9.90;59.37;97751.06;4971790;28;20581;-81
2024/03/07 00:18:15;;;;;;;45.15;25.00;;;;;;;9.96;59.53;97749.41;4984116;28;20037;-81
2024/03/07 00:20:44;;;;;;;44.40;23.65;;;;;;;9.93;59.84;97751.41;5003500;28;20142;-81
2024/03/07 00:23:09;;;;;;;42.97;23.33;;;;;;;9.81;59.43;97748.00;4989733;28;20459;-80
2024/03/07 00:25:34;;;;;;;42.33;22.58;;;;;;;9.85;59.21;97746.56;4987479;28;20029;-81
2024/03/07 00:28:02;;;;;;;42.05;23.67;;;;;;;9.83;59.69;97755.59;4968759;28;20116;-79
2024/03/07 00:30:29;;;;;;;42.22;23.00;;;;;;;9.88;59.47;97743.50;4975434;28;20049;-80
2024/03/07 00:32:55;;;;;;;44.65;24.33;;;;;;;9.78;59.52;97745.84;5000831;28;20067;-78
2024/03/07 00:35:21;;;;;;;43.22;24.63;;;;;;;9.79;59.09;97746.66;4999118;28;20045;-82
2024/03/07 00:37:47;;;;;;;45.88;25.20;;;;;;;9.73;59.11;97745.72;4976032;28;20496;-80
2024/03/07 00:40:13;;;;;;;43.63;22.77;;;;;;;9.78;59.95;97748.44;4971746;28;20025;-79
2024/03/07 00:42:38;;;;;;;43.78;23.27;;;;;;;9.64;58.79;97742.66;4987822;28;20045;-80
2024/03/07 00:45:04;;;;;;;46.72;24.88;;;;;;;9.82;59.47;97739.22;4981684;28;20044;-84
2024/03/07 00:47:31;;;;;;;46.22;24.23;;;;;;;9.87;59.23;97741.91;4988695;28;20193;-83
2024/03/07 00:49:57;;;;;;;44.28;24.48;;;;;;;9.92;58.44;97734.22;4989187;28;20592;-85
2024/03/07 00:52:22;;;;;;;40.70;23.65;;;;;;;9.96;58.75;97741.59;5000889;28;20105;-84
2024/03/07 00:54:49;;;;;;;42.83;23.92;;;;;;;9.89;59.12;97733.91;4970164;28;20049;-84
2024/03/07 00:57:15;;;;;;;40.20;22.27;;;;;;;9.94;59.08;97734.00;4974642;28;20029;-84
2024/03/07 00:59:40;;;;;;;43.03;24.27;;;;;;;9.79;59.44;97734.44;4978505;28;20036;-84
2024/03/07 01:02:06;;;;;;;43.35;22.15;;;;;;;9.77;59.27;97726.09;4989577;28;20298;-84
2024/03/07 01:04:33;;;;;;;40.72;23.27;;;;;;;9.70;59.10;97725.41;4978846;28;20126;-84
2024/03/07 01:06:59;;;;;;;40.25;23.75;;;;;;;9.75;58.97;97725.53;4979892;28;20030;-83
2024/03/07 01:09:30;;;;;;;41.28;23.33;;;;;;;9.85;59.11;97730.97;4989965;28;20065;-84
2024/03/07 01:11:56;;;;;;;42.58;23.45;;;;;;;9.69;58.80;97735.00;4967088;28;20040;-85
2024/03/07 01:14:22;;;;;;;44.50;24.05;;;;;;;9.76;59.51;97729.69;4996070;28;20050;-85
2024/03/07 01:16:48;;;;;;;42.00;24.75;;;;;;;9.64;59.27;97729.66;4982049;28;20060;-84
2024/03/07 01:19:14;;;;;;;44.33;23.63;;;;;;;9.53;59.28;97718.25;4977055;28;20115;-83
2024/03/07 01:21:40;;;;;;;42.78;24.88;;;;;;;9.48;59.75;97718.13;4962972;28;20458;-82
2024/03/07 01:24:06;;;;;;;49.17;25.85;;;;;;;9.55;59.28;97724.00;4999659;28;20057;-84
2024/03/07 01:26:33;;;;;;;44.13;24.58;;;;;;;9.48;59.07;97712.94;5017390;28;20091;-84
2024/03/07 01:28:59;;;;;;;49.78;24.20;;;;;;;9.42;59.05;97713.81;4973315;28;20033;-83
2024/03/07 01:31:24;;;;;;;44.10;23.58;;;;;;;9.36;59.44;97705.09;4992974;28;20034;-84
2024/03/07 01:33:50;;;;;;;44.15;24.00;;;;;;;9.45;59.14;97715.19;4982689;28;20037;-84
2024/03/07 01:36:15;;;;;;;46.75;25.33;;;;;;;9.44;59.18;97706.59;4985297;28;20036;-84
2024/03/07 01:38:41;;;;;;;43.25;23.23;;;;;;;9.37;59.21;97716.28;4974253;28;20091;-84
2024/03/07 01:41:06;;;;;;;43.22;24.60;;;;;;;9.24;59.78;97700.91;4973866;28;20215;-84
2024/03/07 01:43:32;;;;;;;45.83;24.42;;;;;;;9.25;59.50;97707.69;4994896;28;20034;-80
2024/03/07 01:46:00;;;;;;;47.00;24.80;;;;;;;9.12;60.19;97704.25;4993260;28;20041;-79
2024/03/07 01:48:28;;;;;;;42.75;23.75;;;;;;;9.13;60.17;97705.84;4999189;28;20466;-79
2024/03/07 01:50:55;;;;;;;43.08;23.23;;;;;;;9.25;60.07;97708.47;4975731;28;20037;-80
2024/03/07 01:53:22;;;;;;;47.42;26.30;;;;;;;9.22;60.24;97697.72;4966575;28;20478;-84
2024/03/07 01:55:47;;;;;;;45.63;25.45;;;;;;;9.14;60.32;97691.84;4992233;28;20052;-84
2024/03/07 01:58:14;;;;;;;49.20;25.58;;;;;;;9.22;60.46;97695.94;4996073;28;20033;-82
2024/03/07 02:00:39;;;;;;;50.67;26.35;;;;;;;9.18;60.14;97689.56;4996772;28;20030;-85
2024/03/07 02:03:06;;;;;;;46.67;25.20;;;;;;;9.21;60.11;97689.13;4979045;28;20033;-82
2024/03/07 02:05:33;;;;;;;47.45;24.77;;;;;;;9.22;60.04;97689.94;4981287;28;20064;-83
2024/03/07 02:07:59;;;;;;;45.63;25.13;;;;;;;9.16;60.63;97684.59;4991727;28;20018;-84
2024/03/07 02:10:25;;;;;;;49.13;25.30;;;;;;;9.18;59.85;97682.59;4973365;28;20056;-84
2024/03/07 02:12:50;;;;;;;44.50;24.48;;;;;;;9.21;60.41;97691.75;4977968;28;20128;-84
2024/03/07 02:15:16;;;;;;;45.53;26.52;;;;;;;9.13;60.48;97690.25;4970351;28;20068;-84
2024/03/07 02:17:42;;;;;;;44.47;24.85;;;;;;;9.16;59.81;97678.63;4995607;28;20025;-84
2024/03/07 02:20:10;;;;;;;45.80;24.50;;;;;;;9.19;59.88;97673.78;5001175;28;20351;-83
2024/03/07 02:22:39;;;;;;;46.80;23.95;;;;;;;9.08;60.68;97678.94;5001935;28;20041;-84
2024/03/07 02:25:06;;;;;;;45.13;24.80;;;;;;;9.12;59.83;97677.50;4981485;28;20547;-84
2024/03/07 02:27:31;;;;;;;45.65;23.58;;;;;;;9.23;59.57;97674.13;4982629;28;20170;-83
2024/03/07 02:29:56;;;;;;;45.88;23.20;;;;;;;9.30;59.45;97672.19;4972529;28;20033;-85
2024/03/07 02:32:23;;;;;;;46.65;24.48;;;;;;;9.21;58.93;97657.97;4993107;28;20398;-84
2024/03/07 02:34:48;;;;;;;47.13;23.73;;;;;;;9.01;60.11;97666.03;5017718;28;20541;-85
2024/03/07 02:37:14;;;;;;;44.40;24.00;;;;;;;9.10;59.99;97669.91;4984740;28;20164;-84
2024/03/07 02:39:39;;;;;;;46.65;24.20;;;;;;;9.10;59.35;97669.09;4974253;28;20026;-84
2024/03/07 02:42:05;;;;;;;44.30;25.25;;;;;;;9.19;59.38;97673.78;4990128;28;20064;-84
2024/03/07 02:44:31;;;;;;;43.72;24.10;;;;;;;9.15;59.87;97667.44;4994427;28;20057;-83
2024/03/07 02:46:57;;;;;;;41.47;22.95;;;;;;;9.15;59.70;97675.25;4978157;28;20084;-84
2024/03/07 02:49:22;;;;;;;45.53;24.10;;;;;;;9.10;60.28;97663.91;4983593;28;20030;-84
2024/03/07 02:51:48;;;;;;;45.03;24.33;;;;;;;9.10;60.12;97659.53;4968531;28;20406;-84
2024/03/07 02:54:13;;;;;;;45.58;23.40;;;;;;;9.13;60.05;97661.69;4988024;28;20045;-81
2024/03/07 02:56:39;;;;;;;47.60;24.27;;;;;;;9.12;60.41;97656.72;4997673;28;20116;-81
2024/03/07 02:59:04;;;;;;;48.38;25.95;;;;;;;9.04;60.27;97652.63;4974397;28;20029;-80
2024/03/07 03:01:29;;;;;;;46.30;24.67;;;;;;;8.96;59.96;97652.94;4989544;28;20044;-79
2024/03/07 03:03:58;;;;;;;51.97;25.83;;;;;;;8.88;60.75;97655.84;4985502;28;20033;-80
2024/03/07 03:06:23;;;;;;;51.05;25.15;;;;;;;8.86;61.08;97650.88;4991730;28;20041;-80
2024/03/07 03:08:48;;;;;;;44.97;24.67;;;;;;;8.89;60.32;97645.22;5017191;28;20029;-80
2024/03/07 03:11:14;;;;;;;48.38;24.25;;;;;;;8.92;60.79;97644.00;4973757;28;20080;-80
2024/03/07 03:13:40;;;;;;;43.92;23.38;;;;;;;9.05;60.05;97649.00;4973017;28;20402;-80
2024/03/07 03:16:09;;;;;;;49.03;26.05;;;;;;;8.94;60.42;97645.34;4996116;28;20550;-80
2024/03/07 03:18:35;;;;;;;49.25;25.60;;;;;;;8.88;60.38;97645.47;5004915;28;20041;-80
2024/03/07 03:21:01;;;;;;;48.85;25.08;;;;;;;8.76;60.44;97653.22;5003486;28;20036;-80
2024/03/07 03:23:27;;;;;;;47.63;25.85;;;;;;;8.77;61.17;97645.22;4977634;28;20402;-79
2024/03/07 03:25:53;;;;;;;44.90;24.40;;;;;;;8.73;61.46;97644.06;4991816;28;20033;-80
2024/03/07 03:28:19;;;;;;;51.55;25.92;;;;;;;8.76;61.13;97637.66;5001435;28;20029;-80
2024/03/07 03:30:44;;;;;;;45.67;25.20;;;;;;;8.79;60.46;97639.78;4975207;28;20452;-80
2024/03/07 03:33:10;;;;;;;50.70;25.48;;;;;;;8.66;60.99;97617.41;4971799;28;20087;-80
2024/03/07 03:35:36;;;;;;;48.17;25.17;;;;;;;8.69;60.94;97629.13;4996153;28;20042;-80
2024/03/07 03:38:03;;;;;;;48.42;27.20;;;;;;;8.65;61.30;97633.97;5000604;28;20032;-80
2024/03/07 03:40:28;;;;;;;46.67;24.45;;;;;;;8.56;60.85;97625.69;5004213;28;20040;-80
2024/03/07 03:42:54;;;;;;;44.88;25.60;;;;;;;8.50;60.59;97615.41;4993771;28;20398;-79
2024/03/07 03:45:19;;;;;;;45.95;24.17;;;;;;;8.51;60.49;97628.16;5005809;28;20037;-79
2024/03/07 03:47:45;;;;;;;45.13;23.65;;;;;;;8.37;60.98;97627.50;4982871;28;20562;-79
2024/03/07 03:50:12;;;;;;;48.90;25.60;;;;;;;8.35;60.74;97633.94;4990717;28;20108;-80
2024/03/07 03:52:39;;;;;;;46.40;23.98;;;;;;;8.29;61.81;97627.81;4974463;28;20389;-79
2024/03/07 03:55:05;;;;;;;46.13;25.55;;;;;;;8.18;61.96;97620.78;4992398;28;20100;-79
2024/03/07 03:57:31;;;;;;;48.97;25.30;;;;;;;8.11;61.78;97633.03;4995199;28;20087;-80
2024/03/07 03:59:57;;;;;;;51.75;27.30;;;;;;;8.10;61.76;97623.66;5000375;28;20033;-79
2024/03/07 04:02:22;;;;;;;57.28;28.77;;;;;;;8.04;61.36;97620.91;4995124;28;20524;-79
2024/03/07 04:04:54;;;;;;;50.38;26.35;;;;;;;8.16;61.96;97625.38;5012366;28;20405;-81
2024/03/07 04:07:19;;;;;;;50.45;26.88;;;;;;;8.08;60.94;97621.28;5009601;28;20505;-81
2024/03/07 04:09:45;;;;;;;47.33;23.58;;;;;;;8.02;61.88;97617.75;4996087;28;20049;-80
2024/03/07 04:12:11;;;;;;;49.78;24.60;;;;;;;7.97;62.25;97624.56;4976691;28;20030;-80
2024/03/07 04:14:40;;;;;;;48.30;24.63;;;;;;;8.01;62.61;97626.53;4973833;28;20128;-80
2024/03/07 04:17:11;;;;;;;47.08;24.33;;;;;;;7.89;61.25;97617.88;4973622;28;20057;-80
2024/03/07 04:19:38;;;;;;;50.25;25.08;;;;;;;7.86;62.23;97620.91;4992158;28;20477;-80
2024/03/07 04:22:04;;;;;;;50.72;24.52;;;;;;;7.78;62.40;97605.63;5002895;28;20034;-80
2024/03/07 04:24:32;;;;;;;48.33;23.80;;;;;;;7.80;61.77;97624.38;4990641;28;20433;-80
2024/03/07 04:26:59;;;;;;;52.30;25.58;;;;;;;7.77;63.18;97614.44;4981465;28;20478;-80
2024/03/07 04:29:25;;;;;;;56.03;26.58;;;;;;;7.76;62.06;97621.41;5007665;28;20029;-80
2024/03/07 04:31:50;;;;;;;58.67;28.90;;;;;;;7.74;62.50;97620.81;5006933;28;20115;-80
2024/03/07 04:34:16;;;;;;;60.15;30.25;;;;;;;7.74;62.33;97620.03;4976145;28;20038;-84
2024/03/07 04:36:41;;;;;;;69.78;34.30;;;;;;;7.72;62.13;97622.06;5002627;28;20040;-84
2024/03/07 04:39:14;;;;;;;67.57;33.40;;;;;;;7.69;61.67;97623.25;4994008;28;20482;-84
2024/03/07 04:41:39;;;;;;;67.68;34.80;;;;;;;7.58;63.08;97619.59;4997495;28;20048;-84
2024/03/07 04:44:05;;;;;;;68.05;34.65;;;;;;;7.55;61.98;97619.22;4977403;28;20125;-83
2024/03/07 04:46:30;;;;;;;69.38;34.95;;;;;;;7.48;63.05;97617.47;5011537;28;20132;-83
2024/03/07 04:48:57;;;;;;;57.33;29.20;;;;;;;7.46;61.91;97616.91;4971267;28;20038;-84
2024/03/07 04:51:22;;;;;;;51.17;26.25;;;;;;;7.44;62.56;97615.53;4999803;28;20478;-84
2024/03/07 04:53:48;;;;;;;53.35;28.75;;;;;;;7.37;62.94;97613.00;4967689;28;20037;-83
2024/03/07 04:56:14;;;;;;;54.30;26.10;;;;;;;7.27;63.37;97610.09;4994533;28;20548;-84
2024/03/07 04:58:39;;;;;;;53.25;26.35;;;;;;;7.22;62.37;97609.94;4987846;28;20445;-83
2024/03/07 05:01:05;;;;;;;48.33;25.25;;;;;;;7.18;62.82;97604.41;4978580;28;20071;-83
2024/03/07 05:03:30;;;;;;;50.60;25.50;;;;;;;7.11;63.08;97603.63;4978305;28;20036;-83
2024/03/07 05:05:57;;;;;;;53.30;25.20;;;;;;;6.99;63.69;97607.91;4994848;28;20022;-83
2024/03/07 05:08:22;;;;;;;52.58;25.35;;;;;;;7.01;63.84;97606.72;4979071;28;20065;-83
2024/03/07 05:10:48;;;;;;;52.63;25.60;;;;;;;6.92;63.91;97606.19;4970915;28;20442;-84
2024/03/07 05:13:13;;;;;;;56.13;27.42;;;;;;;6.83;64.83;97609.22;4991664;28;20030;-83
2024/03/07 05:15:38;;;;;;;54.03;25.85;;;;;;;6.89;64.02;97614.34;4978391;28;20068;-79
2024/03/07 05:18:04;;;;;;;59.10;27.42;;;;;;;6.90;64.62;97610.75;4985978;28;20482;-80
2024/03/07 05:20:30;;;;;;;53.20;25.98;;;;;;;6.94;64.58;97605.97;4972746;28;20387;-79
2024/03/07 05:22:55;;;;;;;53.75;25.48;;;;;;;6.98;63.62;97608.94;5008810;28;20030;-79
2024/03/07 05:25:22;;;;;;;53.15;25.05;;;;;;;6.93;64.34;97606.97;4993652;28;20037;-79
2024/03/07 05:27:51;;;;;;;62.13;27.45;;;;;;;6.83;64.91;97610.00;4998373;28;20049;-79
2024/03/07 05:30:16;;;;;;;56.25;26.80;;;;;;;6.91;64.05;97602.00;4960476;28;20062;-79
2024/03/07 05:32:42;;;;;;;49.72;24.60;;;;;;;6.94;63.83;97605.97;5006914;28;20076;-79
2024/03/07 05:35:08;;;;;;;53.60;25.13;;;;;;;6.88;64.07;97596.44;4986351;28;20030;-79
2024/03/07 05:37:34;;;;;;;55.00;27.20;;;;;;;6.96;63.66;97603.16;4975117;28;20402;-80
2024/03/07 05:40:00;;;;;;;55.60;26.45;;;;;;;6.88;63.92;97596.44;4970782;28;20069;-79
2024/03/07 05:42:25;;;;;;;51.88;25.15;;;;;;;6.86;63.58;97601.81;4989828;28;20041;-79
2024/03/07 05:44:53;;;;;;;63.88;30.48;;;;;;;6.88;64.32;97606.78;4985146;28;20033;-79
2024/03/07 05:47:19;;;;;;;58.83;28.85;;;;;;;6.77;64.19;97597.91;4990333;28;20112;-79
2024/03/07 05:49:45;;;;;;;58.50;28.33;;;;;;;6.77;64.04;97603.09;4976621;28;20536;-79
2024/03/07 05:52:11;;;;;;;58.13;27.70;;;;;;;6.73;64.37;97601.91;4973037;28;20437;-79
2024/03/07 05:54:36;;;;;;;61.45;29.52;;;;;;;6.66;63.71;97594.19;4992764;28;20044;-79
2024/03/07 05:57:02;;;;;;;53.10;27.23;;;;;;;6.66;63.60;97594.19;4986464;28;20042;-80
2024/03/07 05:59:32;;;;;;;59.17;28.17;;;;;;;6.65;63.88;97609.91;5006844;28;20489;-79
2024/03/07 06:01:57;;;;;;;56.88;27.77;;;;;;;6.63;64.09;97602.38;4988790;28;20115;-79
2024/03/07 06:04:23;;;;;;;61.20;29.50;;;;;;;6.63;63.89;97598.97;4986816;28;20067;-80
2024/03/07 06:06:48;;;;;;;63.00;29.25;;;;;;;6.56;64.18;97594.66;5002466;28;20043;-79
2024/03/07 06:09:14;;;;;;;58.00;28.48;;;;;;;6.40;64.44;97597.72;4967403;28;20060;-80
2024/03/07 06:11:43;;;;;;;65.05;29.92;;;;;;;6.49;65.07;97608.59;5007705;28;20753;-79
2024/03/07 06:14:09;;;;;;;58.85;27.92;;;;;;;6.48;64.86;97607.03;4977902;28;20227;-80
2024/03/07 06:16:38;;;;;;;52.72;24.08;;;;;;;6.54;65.19;97603.59;4967148;28;20029;-79
2024/03/07 06:19:06;;;;;;;53.33;26.58;;;;;;;6.53;64.74;97602.81;4990857;28;20512;-80
2024/03/07 06:21:32;;;;;;;52.50;25.60;;;;;;;6.44;64.24;97601.47;5006216;28;20083;-80
2024/03/07 06:24:02;;;;;;;53.35;26.98;;;;;;;6.48;64.11;97607.03;4988380;28;20277;-79
2024/03/07 06:29:13;;;;;;;52.10;25.63;;;;;;;6.48;64.01;97594.09;4979079;28;20036;-80
2024/03/07 06:31:39;;;;;;;50.80;24.13;;;;;;;6.51;64.20;97604.84;5010740;28;20079;-80
2024/03/07 06:34:04;;;;;;;48.38;24.33;;;;;;;6.47;64.50;97605.44;4992170;28;20118;-79
2024/03/07 06:36:30;;;;;;;51.53;24.40;;;;;;;6.38;63.59;97597.91;4958414;28;20398;-80
2024/03/07 06:38:55;;;;;;;56.75;26.75;;;;;;;6.42;64.14;97608.63;4959247;28;20033;-79
2024/03/07 06:41:21;;;;;;;52.15;25.40;;;;;;;6.40;63.12;97610.66;4992756;28;21353;-80
2024/03/07 06:43:47;;;;;;;56.10;27.35;;;;;;;6.46;64.17;97601.25;4975884;28;20030;-79
2024/03/07 06:46:12;;;;;;;57.83;26.13;;;;;;;6.37;63.42;97601.53;5009464;28;20034;-80
2024/03/07 06:48:41;;;;;;;53.00;24.55;;;;;;;6.49;64.61;97601.63;4990877;28;20041;-80
2024/03/07 06:51:07;;;;;;;49.88;25.65;;;;;;;6.58;64.26;97612.56;4992533;28;20022;-80
2024/03/07 06:53:33;;;;;;;54.25;25.33;;;;;;;6.62;63.48;97607.75;5023110;28;20041;-80
2024/03/07 06:55:58;;;;;;;50.90;24.58;;;;;;;6.62;63.55;97605.97;4993569;28;20055;-79
2024/03/07 06:58:24;;;;;;;45.08;21.73;;;;;;;6.70;63.19;97602.31;4972631;28;20037;-80
2024/03/07 07:00:51;;;;;;;46.35;22.48;;;;;;;6.77;63.89;97613.44;4985365;28;20041;-79
2024/03/07 07:03:22;;;;;;;49.45;23.80;;;;;;;6.93;62.73;97610.34;5019110;28;20033;-80
2024/03/07 07:05:48;;;;;;;46.45;23.60;;;;;;;6.96;63.45;97600.56;5016000;28;20494;-80
2024/03/07 07:08:13;;;;;;;62.75;28.25;;;;;;;7.01;62.67;97606.72;4966528;28;20506;-80
2024/03/07 07:10:40;;;;;;;56.53;27.38;;;;;;;7.06;62.30;97609.47;4992977;28;20029;-80
2024/03/07 07:13:05;;;;;;;50.53;24.27;;;;;;;7.09;62.37;97601.28;5001809;28;20083;-80
2024/03/07 07:15:31;;;;;;;46.50;23.05;;;;;;;7.13;62.06;97604.22;4965280;28;20038;-80
2024/03/07 07:17:56;;;;;;;49.63;23.92;;;;;;;7.21;62.10;97592.81;4999516;28;20037;-79
2024/03/07 07:20:23;;;;;;;46.45;23.27;;;;;;;7.27;61.02;97599.75;4967722;28;20030;-79
2024/03/07 07:22:49;;;;;;;44.45;22.27;;;;;;;7.21;61.43;97587.63;4999283;28;20037;-79
2024/03/07 07:25:15;;;;;;;44.75;23.15;;;;;;;7.34;60.69;97591.91;4989783;28;20135;-79
2024/03/07 07:27:48;;;;;;;41.70;21.48;;;;;;;7.38;61.18;97582.69;4988210;28;20497;-79
2024/03/07 07:30:21;;;;;;;44.10;21.70;;;;;;;7.39;60.68;97592.06;4989591;28;20482;-79
2024/03/07 07:32:46;;;;;;;42.75;21.05;;;;;;;7.36;60.14;97590.69;4964993;28;20437;-79
2024/03/07 07:35:13;;;;;;;44.42;21.67;;;;;;;7.47;61.09;97591.78;4992319;28;20339;-84
2024/03/07 07:37:42;;;;;;;43.17;21.80;;;;;;;7.72;58.84;97596.13;4985863;28;20033;-84
2024/03/07 07:40:18;;;;;;;39.50;19.65;;;;;;;7.69;58.78;97587.78;4973267;28;20025;-84
2024/03/07 07:42:47;;;;;;;36.40;19.75;;;;;;;7.88;58.73;97582.59;4994510;28;20062;-83
2024/03/07 07:45:14;;;;;;;36.42;19.35;;;;;;;7.90;58.55;97588.38;4978117;28;20505;-84
2024/03/07 07:47:41;;;;;;;33.60;18.60;;;;;;;7.85;58.00;97586.41;4986987;28;20065;-82
2024/03/07 07:50:12;;;;;;;31.70;18.00;;;;;;;7.70;57.17;97588.56;4980063;28;20497;-84
2024/03/07 07:52:49;;;;;;;31.35;17.17;;;;;;;7.67;56.53;97592.38;4988506;28;20034;-84
2024/03/07 07:55:17;;;;;;;33.33;18.10;;;;;;;7.71;57.58;97582.41;4975482;28;20513;-84
2024/03/07 07:57:47;;;;;;;30.92;15.88;;;;;;;8.20;56.83;97579.84;4979045;28;20506;-83
2024/03/07 08:00:23;;;;;;;31.27;16.73;;;;;;;8.25;56.93;97590.34;4969506;28;20034;-83
2024/03/07 08:02:54;;;;;;;28.52;17.08;;;;;;;8.41;55.68;97589.75;4973117;28;20080;-84
2024/03/07 08:05:24;;;;;;;27.52;17.45;;;;;;;8.30;54.67;97581.91;5022808;28;20033;-83
2024/03/07 08:07:51;;;;;;;27.90;16.40;;;;;;;7.73;55.47;97582.16;4989822;28;20392;-85
2024/03/07 08:10:18;;;;;;;29.60;16.83;;;;;;;7.96;56.42;97584.91;4975197;28;20482;-85
2024/03/07 08:12:43;;;;;;;29.83;16.45;;;;;;;8.04;56.24;97579.41;4999231;28;20132;-84
2024/03/07 08:15:15;;;;;;;28.83;16.73;;;;;;;8.02;55.67;97585.81;5005282;28;20108;-83
2024/03/07 08:17:45;;;;;;;29.88;15.38;;;;;;;8.12;55.32;97582.72;4991572;28;20125;-83
2024/03/07 08:20:17;;;;;;;31.23;17.63;;;;;;;7.95;55.28;97578.16;4962252;28;20049;-83
2024/03/07 08:22:43;;;;;;;30.33;16.08;;;;;;;7.97;55.68;97573.53;4975141;28;20040;-83
2024/03/07 08:25:10;;;;;;;33.15;18.08;;;;;;;7.96;55.94;97577.13;4996674;28;20034;-83
2024/03/07 08:27:37;;;;;;;32.00;17.42;;;;;;;8.02;56.25;97576.25;4969266;28;20041;-83
2024/03/07 08:30:05;;;;;;;28.90;16.45;;;;;;;7.99;56.09;97571.50;4968582;28;20061;-82
2024/03/07 08:32:34;;;;;;;29.85;16.30;;;;;;;8.07;55.36;97576.41;4993220;28;20517;-82
2024/03/07 08:35:06;;;;;;;35.33;18.30;;;;;;;7.91;55.96;97569.19;4980434;28;20026;-83
2024/03/07 08:37:36;;;;;;;33.05;16.85;;;;;;;7.99;56.44;97571.50;4978958;28;20450;-82
2024/03/07 08:40:06;;;;;;;31.52;17.33;;;;;;;7.99;56.10;97558.53;4970891;28;20034;-84
2024/03/07 08:42:38;;;;;;;33.28;16.92;;;;;;;8.30;55.83;97567.13;5004346;28;20064;-83
2024/03/07 08:45:05;;;;;;;31.95;16.95;;;;;;;7.88;54.00;97561.84;4976955;28;20034;-84
2024/03/07 08:47:35;;;;;;;32.80;17.98;;;;;;;7.79;55.78;97545.78;4979724;28;20069;-79
2024/03/07 08:50:01;;;;;;;31.25;16.33;;;;;;;8.29;54.30;97552.56;4992464;28;20041;-80
2024/03/07 08:52:27;;;;;;;30.25;16.10;;;;;;;8.47;55.14;97553.59;4985574;28;20045;-78
2024/03/07 08:54:54;;;;;;;29.60;15.90;;;;;;;8.72;53.46;97561.19;4992063;28;20092;-78
2024/03/07 08:57:21;;;;;;;27.70;15.30;;;;;;;8.80;52.45;97551.28;4978645;28;20080;-80
2024/03/07 08:59:47;;;;;;;26.88;15.05;;;;;;;9.10;52.80;97549.63;4989157;28;20099;-79
2024/03/07 09:02:12;;;;;;;25.65;15.43;;;;;;;9.02;53.08;97558.53;4990010;28;20394;-79
2024/03/07 09:04:38;;;;;;;28.27;15.85;;;;;;;9.12;51.08;97542.41;4976416;28;20034;-78
2024/03/07 09:07:06;;;;;;;28.48;15.63;;;;;;;8.95;51.52;97553.47;4991695;28;20029;-79
2024/03/07 09:09:32;;;;;;;24.20;14.02;;;;;;;8.56;50.68;97549.66;5002599;28;20040;-78
2024/03/07 09:11:59;;;;;;;26.17;14.45;;;;;;;8.85;52.27;97552.44;4980536;28;20589;-78
2024/03/07 09:14:24;;;;;;;23.80;13.82;;;;;;;8.77;51.37;97545.75;4992275;28;20062;-79
2024/03/07 09:16:51;;;;;;;22.50;13.88;;;;;;;8.98;51.59;97544.44;4976240;28;20121;-79
2024/03/07 09:19:19;;;;;;;25.77;14.77;;;;;;;8.96;50.72;97538.66;5014014;28;20033;-79
2024/03/07 09:21:46;;;;;;;22.25;13.80;;;;;;;9.19;50.55;97543.88;4995479;28;20033;-78
2024/03/07 09:24:12;;;;;;;22.48;13.57;;;;;;;9.00;49.65;97545.78;4987212;28;20375;-78
2024/03/07 09:26:37;;;;;;;20.20;12.70;;;;;;;8.87;48.95;97540.00;5006855;28;20041;-77
2024/03/07 09:29:05;;;;;;;22.60;13.65;;;;;;;8.73;49.65;97542.81;5006664;28;20432;-79
2024/03/07 09:31:35;;;;;;;19.50;11.40;;;;;;;8.99;48.37;97543.41;4992986;28;20092;-79
2024/03/07 09:34:00;;;;;;;20.05;12.55;;;;;;;9.10;49.69;97537.44;4975552;28;20038;-79
2024/03/07 09:36:26;;;;;;;20.25;12.27;;;;;;;8.97;49.42;97535.06;4998987;28;20030;-79
2024/03/07 09:38:53;;;;;;;20.17;12.10;;;;;;;9.07;49.47;97535.28;4969870;28;20045;-77
2024/03/07 09:41:18;;;;;;;20.92;12.13;;;;;;;9.03;49.34;97539.38;4967351;28;20387;-79
2024/03/07 09:43:46;;;;;;;20.75;11.45;;;;;;;8.22;48.45;97531.13;5009228;28;20036;-78
2024/03/07 09:46:12;;;;;;;20.88;12.02;;;;;;;8.34;49.40;97539.72;4999200;28;20088;-78
2024/03/07 09:48:37;;;;;;;23.13;12.15;;;;;;;8.18;50.22;97538.56;4986822;28;20045;-78
2024/03/07 09:51:04;;;;;;;19.38;12.38;;;;;;;8.09;49.29;97544.25;5002389;28;20041;-78
2024/03/07 09:53:30;;;;;;;20.70;12.20;;;;;;;8.30;48.44;97538.59;5004738;28;20445;-78
2024/03/07 09:55:57;;;;;;;18.38;12.25;;;;;;;8.35;49.50;97538.72;4992071;28;20033;-78
2024/03/07 09:58:25;;;;;;;17.95;12.43;;;;;;;8.75;49.35;97535.56;5012120;28;20040;-77
2024/03/07 10:00:50;;;;;;;21.55;12.88;;;;;;;8.98;48.80;97532.25;4990426;28;20391;-80
2024/03/07 10:03:20;;;;;;;17.42;11.15;;;;;;;9.22;47.80;97521.03;4996107;28;20040;-79
2024/03/07 10:05:45;;;;;;;16.88;11.20;;;;;;;9.12;48.41;97535.41;4997835;28;20391;-80
2024/03/07 10:08:12;;;;;;;19.17;12.10;;;;;;;9.23;47.46;97539.00;4991443;28;20036;-79
2024/03/07 10:10:37;;;;;;;20.40;12.20;;;;;;;8.96;47.64;97528.25;4993324;28;20046;-79
2024/03/07 10:13:04;;;;;;;20.85;12.73;;;;;;;8.62;48.75;97523.59;4998060;28;20065;-79
2024/03/07 10:15:31;;;;;;;20.63;12.38;;;;;;;8.93;48.93;97533.94;4982575;28;20305;-78
2024/03/07 10:17:56;;;;;;;19.67;12.25;;;;;;;9.16;47.73;97526.13;4982552;28;20030;-79
2024/03/07 10:20:22;;;;;;;19.55;11.75;;;;;;;9.15;48.03;97526.34;4993218;28;20042;-78
2024/03/07 10:22:50;;;;;;;19.83;11.98;;;;;;;9.14;47.24;97528.16;4989370;28;20405;-79
2024/03/07 10:25:25;;;;;;;20.05;12.90;;;;;;;9.80;46.71;97532.38;4986286;28;20112;-79
2024/03/07 10:27:51;;;;;;;19.65;12.50;;;;;;;9.70;45.94;97528.56;4995774;28;20424;-82
2024/03/07 10:30:22;;;;;;;18.52;12.10;;;;;;;9.91;46.04;97531.56;4966138;28;20123;-81
2024/03/07 10:32:53;;;;;;;20.85;12.20;;;;;;;10.18;45.91;97518.81;4991785;28;20037;-82
2024/03/07 10:35:24;;;;;;;19.88;12.80;;;;;;;9.85;44.87;97528.09;4986119;28;20040;-82
2024/03/07 10:37:54;;;;;;;19.83;12.60;;;;;;;9.80;43.56;97520.19;5007312;28;20520;-81
2024/03/07 10:40:25;;;;;;;21.45;12.20;;;;;;;9.49;45.68;97524.78;4970426;28;20565;-84
2024/03/07 10:42:54;;;;;;;18.17;11.35;;;;;;;9.26;45.02;97525.56;5000423;28;20536;-85
2024/03/07 10:45:23;;;;;;;17.75;11.60;;;;;;;9.05;45.60;97529.53;4983635;28;20041;-82
2024/03/07 10:47:57;;;;;;;17.20;11.10;;;;;;;9.01;45.61;97528.38;4990732;28;20041;-81
2024/03/07 10:50:32;;;;;;;20.38;12.13;;;;;;;8.99;47.92;97523.41;4990151;28;20049;-84
2024/03/07 10:53:22;;;;;;;17.17;11.88;;;;;;;9.08;47.92;97531.69;4986482;28;20037;-83
2024/03/07 10:56:07;;;;;;;19.50;11.30;;;;;;;8.74;47.36;97521.03;5005568;28;20045;-83
2024/03/07 10:58:41;;;;;;;20.45;12.25;;;;;;;8.87;48.68;97521.84;5004791;28;20040;-83
2024/03/07 11:01:10;;;;;;;20.15;12.73;;;;;;;9.05;47.24;97520.94;4984950;28;20398;-83
2024/03/07 11:03:36;;;;;;;20.60;12.73;;;;;;;8.84;47.57;97519.69;4977066;28;20037;-84
2024/03/07 11:06:06;;;;;;;20.48;12.90;;;;;;;8.79;48.18;97513.38;4993992;28;20452;-83
2024/03/07 11:08:34;;;;;;;22.65;13.10;;;;;;;8.54;47.84;97510.94;4978492;28;20494;-83
2024/03/07 11:11:00;;;;;;;20.88;13.13;;;;;;;8.28;49.67;97519.88;4998429;28;20046;-83
2024/03/07 11:13:28;;;;;;;24.27;15.00;;;;;;;8.15;50.02;97512.25;4976169;28;20096;-82
2024/03/07 11:15:57;;;;;;;24.13;14.77;;;;;;;8.23;49.52;97525.72;4980852;28;20486;-85
2024/03/07 11:18:24;;;;;;;24.42;14.77;;;;;;;8.06;50.28;97509.19;4981354;28;20048;-82
2024/03/07 11:20:49;;;;;;;27.83;13.93;;;;;;;7.63;50.77;97515.28;4991983;28;20034;-83
2024/03/07 11:23:28;;;;;;;25.10;14.10;;;;;;;8.09;51.12;97508.75;4997612;28;20047;-84
2024/03/07 11:26:23;;;;;;;21.50;12.13;;;;;;;8.79;50.32;97508.16;4981734;28;20077;-83